Hyde Park, Indiana
Current Conditions -  °F | °C
As of 4:53 PM on Sunday 25 Jan 2015 (Local Time) from KMIE Reporting Station
Light Snow Light Snow  
Wind Chill: 15°   Ceiling: 1000
Heat Index: 28°   Visibility: 0.75mi
Dew Point: 26°   Wind: 18mph
Humidity: 92%   Direction: 50°NE
Pressure: 29.71"   Gusts: NA
Location:  40.1286°N, 85.3767°W
Report Text: KMIE 252153Z 05016KT 3/4SM -SN BR OVC010 M02/M03 A2971 RMK AO2 CIG 006V014 SLP065 P0000 T10221033
Loading
Personal Weather Stations






























Interactive Weather Map New forecast layout! Learn more

10-Day Weather Forecast

Advertisements
Track Severe Weather on mobile